createdAt,value
2023-03-02T00:02:17.382Z,39.67
2023-03-02T00:04:53.523Z,42.83
2023-03-02T00:07:32.598Z,39.57
2023-03-02T00:10:00.147Z,42.53
2023-03-02T00:12:29.439Z,39.70
2023-03-02T00:14:56.743Z,39.80
2023-03-02T00:17:27.936Z,41.30
2023-03-02T00:20:10.332Z,39.67
2023-03-02T00:22:43.904Z,40.10
2023-03-02T00:25:13.837Z,40.40
2023-03-02T00:27:41.484Z,40.83
2023-03-02T00:30:10.630Z,41.97
2023-03-02T00:32:38.369Z,41.97
2023-03-02T00:35:06.381Z,41.50
2023-03-02T00:37:36.198Z,39.47
2023-03-02T00:40:09.772Z,41.83
2023-03-02T00:42:40.116Z,41.23
2023-03-02T00:45:08.048Z,42.27
2023-03-02T00:47:37.361Z,41.43
2023-03-02T00:50:06.578Z,41.63
2023-03-02T00:52:34.451Z,41.10
2023-03-02T00:55:05.217Z,41.90
2023-03-02T00:57:32.347Z,42.50
2023-03-02T00:59:59.921Z,42.00
2023-03-02T01:02:30.276Z,44.43
2023-03-02T01:04:57.721Z,41.47
2023-03-02T01:07:26.262Z,42.33
2023-03-02T01:09:53.432Z,42.60
2023-03-02T01:12:20.678Z,40.93
2023-03-02T01:14:50.841Z,39.70
2023-03-02T01:17:18.089Z,42.00
2023-03-02T01:19:45.733Z,41.03
2023-03-02T01:22:12.955Z,41.03
2023-03-02T01:24:40.098Z,43.23
2023-03-02T01:27:07.540Z,42.43
2023-03-02T01:29:34.669Z,38.80
2023-03-02T01:32:02.211Z,42.10
2023-03-02T01:34:29.475Z,37.70
2023-03-02T01:36:56.887Z,43.10
2023-03-02T01:39:23.976Z,42.40
2023-03-02T01:41:52.986Z,41.10
2023-03-02T01:44:43.073Z,39.07
2023-03-02T01:47:23.367Z,40.97
2023-03-02T01:50:01.893Z,38.80
2023-03-02T01:52:33.438Z,40.27
2023-03-02T01:55:06.409Z,38.07
2023-03-02T01:57:43.872Z,37.67
2023-03-02T02:00:27.360Z,37.83
2023-03-02T02:03:08.745Z,40.00
2023-03-02T02:05:42.229Z,37.30
2023-03-02T02:08:09.875Z,37.57
2023-03-02T02:10:37.497Z,35.93
2023-03-02T02:13:11.432Z,38.30
2023-03-02T02:15:40.496Z,38.07
2023-03-02T02:18:08.020Z,37.57
2023-03-02T02:20:45.344Z,37.67
2023-03-02T02:23:28.492Z,34.70
2023-03-02T02:26:23.886Z,33.73
2023-03-02T02:29:07.891Z,33.87
2023-03-02T02:31:35.951Z,36.33
2023-03-02T02:34:10.773Z,35.87
2023-03-02T02:36:45.144Z,36.87
2023-03-02T02:39:23.790Z,37.00
2023-03-02T02:41:55.158Z,34.80
2023-03-02T02:44:22.593Z,37.07
2023-03-02T02:46:49.738Z,36.50
2023-03-02T02:49:39.230Z,35.27
2023-03-02T02:52:07.365Z,35.13
2023-03-02T02:54:37.090Z,35.53
2023-03-02T02:57:05.348Z,35.23
2023-03-02T02:59:39.915Z,38.17
2023-03-02T03:02:07.226Z,35.60
2023-03-02T03:04:34.862Z,36.03
2023-03-02T03:07:06.702Z,35.90
2023-03-02T03:09:36.956Z,36.03
2023-03-02T03:12:26.104Z,34.47
2023-03-02T03:14:53.976Z,34.67
2023-03-02T03:17:21.437Z,36.37
2023-03-02T03:19:48.566Z,35.97
2023-03-02T03:22:17.413Z,35.60
2023-03-02T03:24:46.128Z,34.13
2023-03-02T03:27:16.200Z,35.40
2023-03-02T03:29:48.133Z,36.50
2023-03-02T03:32:15.571Z,35.67
2023-03-02T03:34:43.238Z,35.27
2023-03-02T03:37:13.698Z,33.83
2023-03-02T03:39:41.297Z,34.07
2023-03-02T03:42:08.757Z,32.13
2023-03-02T03:44:36.364Z,34.73
2023-03-02T03:47:03.729Z,33.57
2023-03-02T03:49:33.718Z,31.60
2023-03-02T03:52:00.854Z,34.03
2023-03-02T03:54:28.132Z,33.20
2023-03-02T03:56:55.704Z,33.20
2023-03-02T03:59:25.524Z,32.57
2023-03-02T04:02:00.091Z,33.03
2023-03-02T04:04:32.456Z,35.83
2023-03-02T04:07:02.740Z,32.88
2023-03-02T04:09:32.319Z,33.73
2023-03-02T04:12:02.764Z,32.27
2023-03-02T04:14:30.393Z,33.80
2023-03-02T04:16:57.764Z,31.87
2023-03-02T04:19:25.882Z,32.77
2023-03-02T04:21:55.439Z,32.37
2023-03-02T04:24:24.095Z,33.03
2023-03-02T04:26:51.854Z,32.30
2023-03-02T04:29:19.228Z,34.87
2023-03-02T04:31:48.376Z,32.00
2023-03-02T04:34:15.821Z,34.90
2023-03-02T04:36:43.355Z,32.97
2023-03-02T04:39:13.848Z,33.23
2023-03-02T04:41:40.980Z,32.17
2023-03-02T04:44:15.105Z,33.40
2023-03-02T04:46:44.770Z,32.00
2023-03-02T04:49:18.312Z,32.60
2023-03-02T04:51:47.555Z,32.20
2023-03-02T04:54:20.910Z,32.83
2023-03-02T04:56:51.734Z,33.07
2023-03-02T04:59:24.022Z,33.37
2023-03-02T05:01:51.599Z,32.77
2023-03-02T05:04:19.147Z,32.37
2023-03-02T05:06:49.924Z,32.50
2023-03-02T05:09:17.123Z,30.63
2023-03-02T05:11:44.396Z,32.73
2023-03-02T05:14:13.263Z,29.30
2023-03-02T05:16:42.416Z,30.17
2023-03-02T05:19:13.632Z,30.13
2023-03-02T05:21:41.873Z,32.30
2023-03-02T05:24:09.357Z,31.90
2023-03-02T05:26:37.017Z,31.47
2023-03-02T05:29:04.627Z,33.73
2023-03-02T05:31:35.985Z,31.93
2023-03-02T05:34:06.452Z,33.00
2023-03-02T05:36:34.662Z,33.53
2023-03-02T05:39:02.388Z,32.27
2023-03-02T05:41:29.677Z,33.53
2023-03-02T05:43:57.403Z,31.57
2023-03-02T05:46:24.842Z,34.00
2023-03-02T05:48:51.985Z,33.47
2023-03-02T05:51:19.332Z,35.40
2023-03-02T05:53:46.727Z,34.87
2023-03-02T05:56:13.882Z,31.87
2023-03-02T05:58:41.137Z,33.00
2023-03-02T06:01:12.684Z,34.63
2023-03-02T06:03:42.806Z,33.90
2023-03-02T06:06:14.358Z,37.30
2023-03-02T06:08:43.338Z,40.00
2023-03-02T06:11:11.943Z,37.97
2023-03-02T06:13:42.134Z,38.20
2023-03-02T06:16:09.719Z,37.87
2023-03-02T06:18:41.546Z,37.17
2023-03-02T06:21:09.325Z,38.97
2023-03-02T06:23:36.654Z,37.93
2023-03-02T06:26:10.365Z,38.80
2023-03-02T06:28:51.619Z,38.50
2023-03-02T06:31:19.891Z,40.30
2023-03-02T06:33:47.028Z,41.97
2023-03-02T06:36:15.199Z,37.73
2023-03-02T06:38:42.394Z,38.27
2023-03-02T06:41:10.036Z,39.30
2023-03-02T06:43:37.423Z,38.20
2023-03-02T06:46:04.848Z,35.87
2023-03-02T06:48:31.988Z,34.70
2023-03-02T06:50:59.479Z,36.80
2023-03-02T06:53:27.272Z,38.37
2023-03-02T06:55:54.419Z,35.43
2023-03-02T06:58:21.626Z,35.93
2023-03-02T07:00:48.883Z,37.00
2023-03-02T07:03:17.443Z,35.77
2023-03-02T07:05:46.334Z,36.63
2023-03-02T07:08:13.713Z,39.60
2023-03-02T07:10:44.348Z,35.93
2023-03-02T07:13:11.496Z,37.03
2023-03-02T07:15:41.687Z,35.07
2023-03-02T07:18:08.835Z,36.63
2023-03-02T07:20:39.571Z,36.20
2023-03-02T07:23:07.260Z,38.17
2023-03-02T07:25:37.422Z,34.57
2023-03-02T07:28:04.960Z,33.97
2023-03-02T07:30:32.159Z,35.53
2023-03-02T07:33:02.510Z,34.67
2023-03-02T07:35:29.691Z,34.90
2023-03-02T07:37:56.795Z,34.53
2023-03-02T07:40:27.437Z,38.77
2023-03-02T07:42:54.707Z,36.53
2023-03-02T07:45:24.912Z,36.27
2023-03-02T07:47:52.249Z,33.87
2023-03-02T07:50:19.614Z,35.50
2023-03-02T07:52:50.436Z,34.53
2023-03-02T07:55:17.753Z,35.50
2023-03-02T07:57:47.514Z,34.67
2023-03-02T08:00:15.675Z,35.93
2023-03-02T08:02:43.180Z,37.13
2023-03-02T08:05:12.258Z,37.23
2023-03-02T08:07:40.636Z,35.20
2023-03-02T08:10:08.770Z,35.57
2023-03-02T08:12:36.524Z,36.80
2023-03-02T08:15:05.106Z,36.03
2023-03-02T08:17:32.598Z,35.00
2023-03-02T08:19:59.833Z,36.40
2023-03-02T08:22:27.015Z,35.73
2023-03-02T08:24:57.395Z,35.90
2023-03-02T08:27:24.888Z,35.27
2023-03-02T08:29:54.178Z,38.20
2023-03-02T08:32:21.672Z,37.67
2023-03-02T08:34:51.803Z,35.83
2023-03-02T08:37:22.124Z,35.33
2023-03-02T08:39:49.454Z,35.70
2023-03-02T08:42:19.738Z,36.75
2023-03-02T08:44:46.960Z,37.63
2023-03-02T08:47:16.747Z,38.53
2023-03-02T08:49:44.385Z,37.93
2023-03-02T08:52:15.228Z,37.55
2023-03-02T08:54:42.773Z,37.08
2023-03-02T08:57:12.430Z,36.20
2023-03-02T08:59:39.973Z,37.30
2023-03-02T09:02:07.918Z,36.75
2023-03-02T09:04:41.576Z,37.83
2023-03-02T09:07:10.004Z,38.78
2023-03-02T09:09:40.753Z,33.90
2023-03-02T09:12:10.809Z,37.10
2023-03-02T09:14:38.190Z,37.03
2023-03-02T09:17:05.754Z,36.67
2023-03-02T09:19:43.236Z,35.72
2023-03-02T09:22:11.601Z,36.83
2023-03-02T09:24:38.977Z,36.97
2023-03-02T09:27:06.180Z,36.47
2023-03-02T09:29:33.479Z,37.63
2023-03-02T09:32:00.795Z,36.42
2023-03-02T09:34:31.322Z,35.63
2023-03-02T09:36:58.479Z,37.15
2023-03-02T09:39:25.579Z,37.65
2023-03-02T09:42:16.312Z,35.70
2023-03-02T09:45:24.036Z,37.65
2023-03-02T09:48:34.361Z,36.00
2023-03-02T09:51:31.460Z,34.90
2023-03-02T09:54:19.639Z,32.33
2023-03-02T09:56:56.027Z,33.83
2023-03-02T09:59:51.835Z,33.92
2023-03-02T10:02:50.461Z,34.37
2023-03-02T10:05:29.361Z,33.08
2023-03-02T10:08:00.837Z,29.50
2023-03-02T10:11:22.468Z,32.90
2023-03-02T10:14:17.931Z,33.45
2023-03-02T10:17:07.956Z,32.72
2023-03-02T10:19:44.399Z,32.42
2023-03-02T10:22:24.065Z,30.75
2023-03-02T10:25:22.922Z,31.90
2023-03-02T10:28:05.685Z,31.40
2023-03-02T10:30:38.616Z,33.17
2023-03-02T10:33:17.782Z,30.58
2023-03-02T10:35:52.010Z,29.98
2023-03-02T10:38:25.250Z,33.22
2023-03-02T10:41:03.636Z,31.83
2023-03-02T10:43:52.699Z,32.40
2023-03-02T10:46:20.506Z,29.73
2023-03-02T10:49:01.278Z,28.25
2023-03-02T10:51:37.563Z,27.77
2023-03-02T10:54:13.603Z,27.60
2023-03-02T10:56:52.119Z,28.33
2023-03-02T10:59:44.970Z,27.40
2023-03-02T11:02:24.794Z,29.45
2023-03-02T11:04:57.646Z,27.52
2023-03-02T11:07:29.489Z,29.48
2023-03-02T11:10:19.274Z,27.90
2023-03-02T11:12:50.482Z,26.40
2023-03-02T11:15:32.669Z,27.67
2023-03-02T11:18:22.592Z,26.80
2023-03-02T11:20:56.996Z,26.20
2023-03-02T11:23:43.763Z,25.83
2023-03-02T11:26:30.973Z,25.80
2023-03-02T11:29:12.066Z,24.30
2023-03-02T11:31:52.285Z,23.90
2023-03-02T11:34:40.664Z,23.98
2023-03-02T11:37:23.608Z,24.20
2023-03-02T11:40:09.104Z,24.08
2023-03-02T11:42:44.886Z,24.73
2023-03-02T11:48:29.284Z,25.38
2023-03-02T11:51:01.043Z,24.75
2023-03-02T11:53:57.509Z,25.55
2023-03-02T11:59:02.328Z,25.58
2023-03-02T12:01:32.056Z,24.10
2023-03-02T12:04:35.032Z,23.17
2023-03-02T12:07:22.976Z,23.52
2023-03-02T12:10:31.319Z,20.95
2023-03-02T12:13:18.358Z,23.58
2023-03-02T12:15:50.979Z,22.65
2023-03-02T12:18:21.144Z,22.95
2023-03-02T12:21:11.775Z,23.17
2023-03-02T12:23:58.308Z,22.95
2023-03-02T12:26:35.330Z,20.25
2023-03-02T12:29:13.907Z,20.95
2023-03-02T12:31:56.402Z,20.75
2023-03-02T12:34:38.296Z,21.90
2023-03-02T12:37:57.063Z,19.73
2023-03-02T12:40:56.565Z,19.15
2023-03-02T12:43:33.735Z,18.40
2023-03-02T12:46:34.306Z,20.25
2023-03-02T12:49:22.214Z,19.80
2023-03-02T12:52:01.992Z,18.88
2023-03-02T12:54:34.674Z,18.30
2023-03-02T12:57:19.457Z,19.13
2023-03-02T12:59:59.269Z,20.73
2023-03-02T13:02:36.888Z,18.65
2023-03-02T13:05:08.613Z,18.25
2023-03-02T13:07:58.714Z,19.00
2023-03-02T13:10:49.081Z,19.40
2023-03-02T13:13:43.546Z,19.00
2023-03-02T13:16:25.453Z,19.02
2023-03-02T13:19:16.626Z,18.38
2023-03-02T13:21:44.012Z,19.60
2023-03-02T13:24:51.986Z,19.70
2023-03-02T13:27:23.622Z,18.92
2023-03-02T13:29:52.960Z,17.05
2023-03-02T13:32:27.796Z,17.33
2023-03-02T13:34:59.215Z,18.73
2023-03-02T13:37:40.256Z,18.02
2023-03-02T13:40:27.376Z,18.17
2023-03-02T13:42:55.242Z,19.20
2023-03-02T13:45:33.121Z,19.73
2023-03-02T13:48:15.385Z,19.52
2023-03-02T13:51:15.827Z,19.38
2023-03-02T13:53:57.205Z,19.27
2023-03-02T13:56:38.283Z,18.48
2023-03-02T13:59:12.640Z,17.73
2023-03-02T14:01:41.572Z,18.65
2023-03-02T14:04:18.421Z,18.80
2023-03-02T14:06:46.131Z,18.27
2023-03-02T14:09:16.688Z,17.00
2023-03-02T14:11:49.250Z,17.42
2023-03-02T14:14:23.454Z,17.02
2023-03-02T14:16:51.749Z,16.10
2023-03-02T14:19:20.171Z,16.65
2023-03-02T14:21:48.092Z,15.93
2023-03-02T14:24:15.794Z,16.02
2023-03-02T14:26:48.847Z,14.25
2023-03-02T14:29:27.506Z,15.88
2023-03-02T14:32:08.355Z,15.00
2023-03-02T14:34:38.790Z,14.98
2023-03-02T14:37:20.127Z,13.55
2023-03-02T14:39:54.954Z,14.73
2023-03-02T14:42:23.630Z,15.32
2023-03-02T14:44:51.808Z,15.32
2023-03-02T14:47:19.862Z,14.52
2023-03-02T14:49:48.915Z,16.20
2023-03-02T14:52:44.110Z,13.73
2023-03-02T14:55:27.178Z,14.57
2023-03-02T14:58:05.173Z,14.40
2023-03-02T15:00:34.936Z,14.00
2023-03-02T15:03:02.153Z,13.70
2023-03-02T15:05:32.580Z,13.55
2023-03-02T15:07:59.942Z,13.77
2023-03-02T15:10:27.277Z,14.02
2023-03-02T15:12:54.559Z,14.27
2023-03-02T15:15:27.937Z,12.27
2023-03-02T15:17:58.558Z,14.10
2023-03-02T15:20:25.687Z,14.02
2023-03-02T15:22:53.463Z,14.52
2023-03-02T15:25:25.984Z,14.73
2023-03-02T15:27:55.523Z,13.75
2023-03-02T15:30:25.015Z,13.75
2023-03-02T15:32:53.301Z,14.23
2023-03-02T15:35:20.699Z,14.32
2023-03-02T15:37:47.908Z,14.07
2023-03-02T15:40:15.357Z,14.63
2023-03-02T15:42:42.660Z,14.90
2023-03-02T15:45:12.614Z,13.00
2023-03-02T15:47:39.819Z,13.82
2023-03-02T15:50:07.701Z,12.43
2023-03-02T15:52:35.107Z,14.52
2023-03-02T15:55:02.494Z,13.68
2023-03-02T15:57:29.606Z,14.52
2023-03-02T15:59:56.972Z,14.27
2023-03-02T16:02:24.187Z,14.43
2023-03-02T16:04:51.345Z,13.75
2023-03-02T16:07:18.516Z,15.00
2023-03-02T16:09:46.377Z,13.63
2023-03-02T16:12:13.716Z,14.60
2023-03-02T16:14:41.186Z,14.27
2023-03-02T16:17:08.541Z,13.80
2023-03-02T16:19:37.468Z,13.77
2023-03-02T16:22:04.945Z,13.88
2023-03-02T16:24:32.137Z,14.63
2023-03-02T16:26:59.569Z,14.00
2023-03-02T16:29:26.945Z,12.15
2023-03-02T16:31:54.274Z,13.38
2023-03-02T16:34:21.788Z,12.77
2023-03-02T16:36:52.797Z,14.30
2023-03-02T16:39:20.615Z,14.45
2023-03-02T16:41:51.560Z,14.82
2023-03-02T16:44:22.984Z,15.45
2023-03-02T16:46:51.576Z,14.35
2023-03-02T16:49:19.278Z,13.30
2023-03-02T16:51:49.718Z,15.50
2023-03-02T16:54:17.739Z,15.35
2023-03-02T16:56:47.399Z,14.52
2023-03-02T16:59:15.460Z,15.85
2023-03-02T17:01:42.974Z,13.68
2023-03-02T17:04:14.098Z,16.10
2023-03-02T17:07:03.453Z,14.88
2023-03-02T17:09:31.872Z,14.90
2023-03-02T17:11:59.476Z,14.85
2023-03-02T17:14:27.826Z,15.10
2023-03-02T17:16:57.329Z,15.68
2023-03-02T17:19:26.918Z,16.30
2023-03-02T17:21:58.360Z,15.75
2023-03-02T17:24:30.424Z,16.80
2023-03-02T17:26:58.213Z,16.38
2023-03-02T17:29:27.745Z,15.90
2023-03-02T17:31:56.215Z,17.95
2023-03-02T17:34:24.088Z,19.55
2023-03-02T17:36:57.177Z,20.25
2023-03-02T17:39:31.390Z,20.15
2023-03-02T17:41:59.478Z,20.30
2023-03-02T17:44:28.072Z,19.30
2023-03-02T17:46:56.196Z,20.33
2023-03-02T17:49:23.778Z,20.25
2023-03-02T17:51:53.403Z,21.30
2023-03-02T17:54:20.787Z,20.08
2023-03-02T17:56:48.482Z,21.40
2023-03-02T17:59:16.032Z,21.23
2023-03-02T18:01:44.307Z,19.73
2023-03-02T18:04:11.737Z,20.75
2023-03-02T18:06:41.045Z,21.05
2023-03-02T18:09:08.733Z,19.40
2023-03-02T18:11:37.559Z,24.38
2023-03-02T18:14:05.531Z,23.90
2023-03-02T18:16:35.549Z,21.63
2023-03-02T18:19:04.382Z,21.40
2023-03-02T18:21:32.802Z,21.55
2023-03-02T18:24:01.633Z,21.35
2023-03-02T18:26:29.747Z,26.08
2023-03-02T18:29:00.544Z,28.60
2023-03-02T18:31:28.923Z,25.38
2023-03-02T18:33:57.261Z,25.92
2023-03-02T18:36:26.009Z,24.92
2023-03-02T18:38:55.981Z,23.67
2023-03-02T18:41:34.254Z,23.77
2023-03-02T18:44:03.589Z,24.17
2023-03-02T18:46:34.155Z,25.23
2023-03-02T18:49:04.411Z,26.13
2023-03-02T18:51:35.195Z,24.73
2023-03-02T18:54:03.623Z,25.75
2023-03-02T18:56:33.839Z,27.17
2023-03-02T18:59:05.326Z,27.05
2023-03-02T19:01:33.831Z,26.23
2023-03-02T19:04:04.124Z,23.98
2023-03-02T19:06:33.785Z,26.23
2023-03-02T19:09:02.878Z,26.08
2023-03-02T19:11:34.211Z,26.75
2023-03-02T19:14:09.886Z,28.05
2023-03-02T19:16:38.650Z,26.83
2023-03-02T19:19:08.745Z,28.35
2023-03-02T19:21:36.618Z,30.52
2023-03-02T19:24:04.794Z,28.58
2023-03-02T19:26:33.405Z,30.05
2023-03-02T19:29:01.458Z,31.10
2023-03-02T19:31:32.441Z,32.40
2023-03-02T19:34:01.224Z,31.35
2023-03-02T19:36:30.270Z,32.20
2023-03-02T19:38:59.628Z,31.77
2023-03-02T19:41:30.942Z,33.03
2023-03-02T19:43:59.619Z,33.58
2023-03-02T19:46:27.997Z,31.45
2023-03-02T19:48:56.324Z,32.28
2023-03-02T19:51:25.373Z,32.17
2023-03-02T19:53:53.754Z,34.17
2023-03-02T19:56:25.521Z,33.95
2023-03-02T19:58:55.838Z,32.78
2023-03-02T20:01:26.799Z,31.60
2023-03-02T20:03:58.263Z,31.90
2023-03-02T20:06:35.027Z,29.58
2023-03-02T20:09:07.189Z,32.92
2023-03-02T20:11:35.828Z,33.30
2023-03-02T20:14:03.902Z,30.13
2023-03-02T20:16:35.819Z,31.70
2023-03-02T20:19:06.035Z,32.67
2023-03-02T20:21:39.194Z,34.40
2023-03-02T20:24:08.455Z,29.80
2023-03-02T20:26:39.397Z,32.45
2023-03-02T20:29:09.667Z,32.80
2023-03-02T20:31:39.668Z,32.15
2023-03-02T20:34:16.519Z,32.37
2023-03-02T20:36:48.541Z,32.78
2023-03-02T20:39:43.607Z,32.63
2023-03-02T20:42:13.355Z,32.92
2023-03-02T20:44:41.618Z,31.08
2023-03-02T20:47:15.211Z,32.08
2023-03-02T20:49:45.457Z,31.57
2023-03-02T20:52:15.187Z,32.28
2023-03-02T20:54:45.381Z,33.73
2023-03-02T20:57:18.011Z,32.10
2023-03-02T20:59:47.781Z,30.08
2023-03-02T21:02:19.832Z,31.40
2023-03-02T21:04:48.251Z,32.20
2023-03-02T21:07:17.795Z,33.30
2023-03-02T21:09:47.623Z,32.90
2023-03-02T21:12:15.621Z,33.17
2023-03-02T21:14:43.879Z,30.03
2023-03-02T21:17:11.989Z,30.50
2023-03-02T21:19:39.724Z,32.10
2023-03-02T21:22:07.609Z,30.40
2023-03-02T21:24:35.903Z,29.97
2023-03-02T21:27:07.942Z,30.40
2023-03-02T21:29:38.580Z,30.05
2023-03-02T21:32:07.959Z,31.27
2023-03-02T21:34:38.388Z,31.97
2023-03-02T21:37:06.510Z,31.17
2023-03-02T21:39:34.023Z,31.77
2023-03-02T21:42:01.743Z,31.20
2023-03-02T21:44:29.434Z,32.20
2023-03-02T21:46:56.871Z,32.23
2023-03-02T21:49:24.025Z,33.67
2023-03-02T21:51:51.753Z,34.27
2023-03-02T21:54:18.895Z,33.00
2023-03-02T21:56:46.232Z,33.97
2023-03-02T21:59:13.441Z,33.57
2023-03-02T22:01:41.237Z,34.13
2023-03-02T22:04:08.730Z,33.50
2023-03-02T22:06:37.650Z,32.60
2023-03-02T22:09:05.319Z,31.27
2023-03-02T22:11:37.918Z,30.30
2023-03-02T22:14:14.474Z,29.60
2023-03-02T22:16:46.458Z,32.20
2023-03-02T22:19:28.410Z,31.13
2023-03-02T22:22:03.123Z,31.40
2023-03-02T22:24:33.656Z,29.70
2023-03-02T22:27:18.137Z,33.00
2023-03-02T22:29:47.699Z,29.57
2023-03-02T22:32:30.997Z,28.57
2023-03-02T22:35:02.895Z,31.13
2023-03-02T22:37:34.459Z,31.30
2023-03-02T22:40:26.403Z,31.60
2023-03-02T22:43:13.867Z,30.83
2023-03-02T22:45:42.203Z,30.23
2023-03-02T22:48:22.855Z,30.97
2023-03-02T22:50:50.595Z,29.37
2023-03-02T22:53:42.703Z,31.47
2023-03-02T22:56:36.916Z,29.83
2023-03-02T22:59:25.605Z,31.37
2023-03-02T23:02:08.605Z,29.60
2023-03-02T23:04:38.111Z,29.70
2023-03-02T23:07:20.783Z,30.30
2023-03-02T23:09:48.818Z,31.67
2023-03-02T23:12:24.289Z,31.10
2023-03-02T23:14:52.296Z,29.95
2023-03-02T23:17:46.913Z,31.40
2023-03-02T23:20:17.099Z,30.37
2023-03-02T23:22:44.537Z,31.27
2023-03-02T23:25:11.969Z,30.50
2023-03-02T23:27:39.201Z,31.13
2023-03-02T23:30:07.151Z,31.53
2023-03-02T23:32:35.109Z,30.90
2023-03-02T23:35:02.867Z,31.03
2023-03-02T23:37:30.072Z,29.93
2023-03-02T23:40:00.462Z,32.03
2023-03-02T23:42:28.045Z,30.37
2023-03-02T23:44:55.964Z,31.00
2023-03-02T23:47:23.210Z,30.53
2023-03-02T23:49:50.563Z,29.63
2023-03-02T23:52:17.671Z,29.87
2023-03-02T23:54:46.237Z,31.63
2023-03-02T23:57:16.390Z,30.63
2023-03-02T23:59:44.617Z,32.57
